Goliah — WDD5908 — position and weather

sailwx.info

Track history (hours):
 
Tides and Currents Weather Stations Pressure Air Temp Water Temp Dewpoint Dewpoint Depression Visibility Wind Speed Wind Dir Waves Ship Positions

Goliah

Owner: Crowley Marine Services, Inc., Seattle, WA. More information available from US FCC via Universal Licensing System and Coast Guard Vessel Documentation Center.

Last reported at 2015-Mar-04 22:24 UTC. Time now 2015-Mar-04 22:50 UTC.
Position N 33°45' W 118°12'.

Length 33 m; draft 4.8 m.

Type: Tug. MMSI: 366898250.

Date/timePositionNaut miles runAvg speedWind from/ knotsBaromVisibWave heightAir tempDewpointWater temp
2015-Mar-04 22:24N 33°45' W 118°12'1 0.7
2015-Mar-04 21:30N 33°45' W 118°13'2 2.2
2015-Mar-04 20:31N 33°44' W 118°11'3 3.5
2015-Mar-04 19:33N 33°41' W 118°11'6 0.4
2015-Mar-04 03:24N 33°45' W 118°16'1 0.8
2015-Mar-04 02:33N 33°46' W 118°16'3 1.4
2015-Mar-04 00:32N 33°44' W 118°14'2 0.2
2015-Mar-03 13:33N 33°45' W 118°16'1 1.3
2015-Mar-03 12:33N 33°46' W 118°15'3 0.5
2015-Mar-03 07:04N 33°44' W 118°13'2 3.9
2015-Mar-03 06:33N 33°46' W 118°13'0 0.1
2015-Mar-03 05:34N 33°46' W 118°14'2 0.2
2015-Mar-02 18:33N 33°44' W 118°13'3 2.5
2015-Mar-02 17:33N 33°42' W 118°11'4 3.5
2015-Mar-02 16:33N 33°45' W 118°13'0 0.1
2015-Mar-02 15:33N 33°45' W 118°13'0 0.5
2015-Mar-02 14:34N 33°45' W 118°13'2 1.9
2015-Mar-02 13:34N 33°44' W 118°12'0 0.5
2015-Mar-02 12:33N 33°44' W 118°12'4 3.8
2015-Mar-02 11:33N 33°44' W 118°17'0 0.0
2015-Mar-02 10:33N 33°44' W 118°17'0 0.0
2015-Mar-02 09:33N 33°44' W 118°17'1 0.6
2015-Mar-02 08:33N 33°45' W 118°16'3 0.4
2015-Mar-02 00:08N 33°44' W 118°12'0 0.5
2015-Mar-01 23:29N 33°45' W 118°12'2 1.8
2015-Mar-01 22:28N 33°44' W 118°10'2 1.8
2015-Mar-01 21:33N 33°45' W 118°12'1 0.9
2015-Mar-01 20:25N 33°44' W 118°12'3 2.6
2015-Mar-01 19:10N 33°45' W 118°16'1 1.7
2015-Mar-01 18:33N 33°46' W 118°14'2 0.5
2015-Mar-01 15:32N 33°45' W 118°16'0 0.0
2015-Mar-01 13:15N 33°45' W 118°16'1 0.7
2015-Mar-01 12:19N 33°46' W 118°17'1 0.2
2015-Mar-01 09:21N 33°45' W 118°16'1 1.4
2015-Mar-01 08:34N 33°46' W 118°15'1 0.2
2015-Mar-01 00:17N 33°45' W 118°16'0 0.0
2015-Feb-28 13:20N 33°45' W 118°17'1 0.7
2015-Feb-28 12:33N 33°46' W 118°17'1 0.6
2015-Feb-28 11:31N 33°45' W 118°16'0 0.0
2015-Feb-28 06:13N 33°45' W 118°17'0 0.4
2015-Feb-28 05:30N 33°45' W 118°16'0 0.1
2015-Feb-28 03:29N 33°45' W 118°16'0 0.1
2015-Feb-28 02:25N 33°45' W 118°16'1 0.5
2015-Feb-27 23:34N 33°46' W 118°15'1 1.0
2015-Feb-27 22:32N 33°45' W 118°16'3 0.4
2015-Feb-27 14:27N 33°45' W 118°12'2 1.9
2015-Feb-27 13:28N 33°44' W 118°10'2 1.7
2015-Feb-27 12:12N 33°45' W 118°13'0 0.5
2015-Feb-27 11:34N 33°45' W 118°13'0 0.0
2015-Feb-27 10:34N 33°45' W 118°13'0 0.0
2015-Feb-27 09:33N 33°45' W 118°13'1 0.6
2015-Feb-27 08:33N 33°45' W 118°12'0 0.3
2015-Feb-27 07:32N 33°44' W 118°13'1 0.7
2015-Feb-27 06:33N 33°45' W 118°13'0 0.0
2015-Feb-27 05:33N 33°45' W 118°13'0 0.0
2015-Feb-27 04:33N 33°45' W 118°13'4 3.6
2015-Feb-27 03:34N 33°44' W 118°09'3 3.0
2015-Feb-27 02:29N 33°45' W 118°13'0 0.1
2015-Feb-27 01:30N 33°45' W 118°13'3 3.6
2015-Feb-27 00:34N 33°43' W 118°16'1 0.4
2015-Feb-26 21:32N 33°44' W 118°17'3 0.8
2015-Feb-26 17:32N 33°45' W 118°13'1 0.5
2015-Feb-26 16:34N 33°46' W 118°13'1 1.1
2015-Feb-26 15:34N 33°44' W 118°13'1 0.6
2015-Feb-26 14:33N 33°45' W 118°13'1 1.2
2015-Feb-26 13:32N 33°45' W 118°14'2 1.8
2015-Feb-26 12:34N 33°44' W 118°13'1 1.0
2015-Feb-26 11:33N 33°43' W 118°13'3 1.7
2015-Feb-26 09:33N 33°44' W 118°17'2 0.9
2015-Feb-26 07:31N 33°43' W 118°15'2 2.6
2015-Feb-26 06:33N 33°45' W 118°16'1 1.2
2015-Feb-26 05:33N 33°44' W 118°17'0 0.0
2015-Feb-26 04:33N 33°44' W 118°17'1 0.9
2015-Feb-26 03:34N 33°44' W 118°16'3 3.4
2015-Feb-26 02:34N 33°45' W 118°12'3 2.9
2015-Feb-26 01:33N 33°44' W 118°16'1 0.6
2015-Feb-25 23:33N 33°44' W 118°17'0 0.0
2015-Feb-25 22:34N 33°44' W 118°17'0 0.0
2015-Feb-25 21:33N 33°44' W 118°17'0 0.0
2015-Feb-25 20:33N 33°44' W 118°17'1 0.3
2015-Feb-25 15:32N 33°46' W 118°17'0 0.2
2015-Feb-25 14:27N 33°46' W 118°17'0 0.1
2015-Feb-25 13:31N 33°45' W 118°17'3 3.2
2015-Feb-25 12:32N 33°43' W 118°15'4 3.6
2015-Feb-25 11:32N 33°46' W 118°16'4 3.0
2015-Feb-25 10:16N 33°44' W 118°12'0 0.5
2015-Feb-25 09:31N 33°45' W 118°13'0 0.4
2015-Feb-25 08:34N 33°44' W 118°12'1 0.7
2015-Feb-25 07:27N 33°45' W 118°13'0 0.1
2015-Feb-25 06:33N 33°45' W 118°13'0 0.0
2015-Feb-25 05:33N 33°45' W 118°13'0 0.3
2015-Feb-25 04:31N 33°45' W 118°13'0 0.3
2015-Feb-25 03:33N 33°45' W 118°13'0 0.0
2015-Feb-25 02:33N 33°45' W 118°13'1 1.3
2015-Feb-25 01:34N 33°46' W 118°13'3 2.9
2015-Feb-25 00:33N 33°44' W 118°12'0 0.5
2015-Feb-24 23:33N 33°43' W 118°12'4 3.9
2015-Feb-24 22:33N 33°44' W 118°17'5 2.3
2015-Feb-24 20:19N 33°44' W 118°10'5 1.0
2015-Feb-24 15:04N 33°45' W 118°17'1 0.2
2015-Feb-24 07:33N 33°46' W 118°15'1 0.3
2015-Feb-24 03:25N 33°45' W 118°17'0 0.1
2015-Feb-24 02:15N 33°45' W 118°16'1 2.1
2015-Feb-24 01:33N 33°46' W 118°15'0 0.0
2015-Feb-23 12:33N 33°46' W 118°15'  
Track history (hours):
 
Tides and Currents Weather Stations Pressure Air Temp Water Temp Dewpoint Dewpoint Depression Visibility Wind Speed Wind Dir Waves Ship Positions

Goliah

Owner: Crowley Marine Services, Inc., Seattle, WA. More information available from US FCC via Universal Licensing System and Coast Guard Vessel Documentation Center.

Last reported at 2015-Mar-04 22:24 UTC. Time now 2015-Mar-04 22:50 UTC.
Position N 33°45' W 118°12'.

Length 33 m; draft 4.8 m.

Type: Tug. MMSI: 366898250.

Date/timePositionNaut miles runAvg speedWind from/ knotsBaromVisibWave heightAir tempDewpointWater temp
2015-Mar-04 22:24N 33°45' W 118°12'1 0.7
2015-Mar-04 21:30N 33°45' W 118°13'2 2.2
2015-Mar-04 20:31N 33°44' W 118°11'3 3.5
2015-Mar-04 19:33N 33°41' W 118°11'6 0.4
2015-Mar-04 03:24N 33°45' W 118°16'1 0.8
2015-Mar-04 02:33N 33°46' W 118°16'3 1.4
2015-Mar-04 00:32N 33°44' W 118°14'2 0.2
2015-Mar-03 13:33N 33°45' W 118°16'1 1.3
2015-Mar-03 12:33N 33°46' W 118°15'3 0.5
2015-Mar-03 07:04N 33°44' W 118°13'2 3.9
2015-Mar-03 06:33N 33°46' W 118°13'0 0.1
2015-Mar-03 05:34N 33°46' W 118°14'2 0.2
2015-Mar-02 18:33N 33°44' W 118°13'3 2.5
2015-Mar-02 17:33N 33°42' W 118°11'4 3.5
2015-Mar-02 16:33N 33°45' W 118°13'0 0.1
2015-Mar-02 15:33N 33°45' W 118°13'0 0.5
2015-Mar-02 14:34N 33°45' W 118°13'2 1.9
2015-Mar-02 13:34N 33°44' W 118°12'0 0.5
2015-Mar-02 12:33N 33°44' W 118°12'4 3.8
2015-Mar-02 11:33N 33°44' W 118°17'0 0.0
2015-Mar-02 10:33N 33°44' W 118°17'0 0.0
2015-Mar-02 09:33N 33°44' W 118°17'1 0.6
2015-Mar-02 08:33N 33°45' W 118°16'3 0.4
2015-Mar-02 00:08N 33°44' W 118°12'0 0.5
2015-Mar-01 23:29N 33°45' W 118°12'2 1.8
2015-Mar-01 22:28N 33°44' W 118°10'2 1.8
2015-Mar-01 21:33N 33°45' W 118°12'1 0.9
2015-Mar-01 20:25N 33°44' W 118°12'3 2.6
2015-Mar-01 19:10N 33°45' W 118°16'1 1.7
2015-Mar-01 18:33N 33°46' W 118°14'2 0.5
2015-Mar-01 15:32N 33°45' W 118°16'0 0.0
2015-Mar-01 13:15N 33°45' W 118°16'1 0.7
2015-Mar-01 12:19N 33°46' W 118°17'1 0.2
2015-Mar-01 09:21N 33°45' W 118°16'1 1.4
2015-Mar-01 08:34N 33°46' W 118°15'1 0.2
2015-Mar-01 00:17N 33°45' W 118°16'0 0.0
2015-Feb-28 13:20N 33°45' W 118°17'1 0.7
2015-Feb-28 12:33N 33°46' W 118°17'1 0.6
2015-Feb-28 11:31N 33°45' W 118°16'0 0.0
2015-Feb-28 06:13N 33°45' W 118°17'0 0.4
2015-Feb-28 05:30N 33°45' W 118°16'0 0.1
2015-Feb-28 03:29N 33°45' W 118°16'0 0.1
2015-Feb-28 02:25N 33°45' W 118°16'1 0.5
2015-Feb-27 23:34N 33°46' W 118°15'1 1.0
2015-Feb-27 22:32N 33°45' W 118°16'3 0.4
2015-Feb-27 14:27N 33°45' W 118°12'2 1.9
2015-Feb-27 13:28N 33°44' W 118°10'2 1.7
2015-Feb-27 12:12N 33°45' W 118°13'0 0.5
2015-Feb-27 11:34N 33°45' W 118°13'0 0.0
2015-Feb-27 10:34N 33°45' W 118°13'0 0.0
2015-Feb-27 09:33N 33°45' W 118°13'1 0.6
2015-Feb-27 08:33N 33°45' W 118°12'0 0.3
2015-Feb-27 07:32N 33°44' W 118°13'1 0.7
2015-Feb-27 06:33N 33°45' W 118°13'0 0.0
2015-Feb-27 05:33N 33°45' W 118°13'0 0.0
2015-Feb-27 04:33N 33°45' W 118°13'4 3.6
2015-Feb-27 03:34N 33°44' W 118°09'3 3.0
2015-Feb-27 02:29N 33°45' W 118°13'0 0.1
2015-Feb-27 01:30N 33°45' W 118°13'3 3.6
2015-Feb-27 00:34N 33°43' W 118°16'1 0.4
2015-Feb-26 21:32N 33°44' W 118°17'3 0.8
2015-Feb-26 17:32N 33°45' W 118°13'1 0.5
2015-Feb-26 16:34N 33°46' W 118°13'1 1.1
2015-Feb-26 15:34N 33°44' W 118°13'1 0.6
2015-Feb-26 14:33N 33°45' W 118°13'1 1.2
2015-Feb-26 13:32N 33°45' W 118°14'2 1.8
2015-Feb-26 12:34N 33°44' W 118°13'1 1.0
2015-Feb-26 11:33N 33°43' W 118°13'3 1.7
2015-Feb-26 09:33N 33°44' W 118°17'2 0.9
2015-Feb-26 07:31N 33°43' W 118°15'2 2.6
2015-Feb-26 06:33N 33°45' W 118°16'1 1.2
2015-Feb-26 05:33N 33°44' W 118°17'0 0.0
2015-Feb-26 04:33N 33°44' W 118°17'1 0.9
2015-Feb-26 03:34N 33°44' W 118°16'3 3.4
2015-Feb-26 02:34N 33°45' W 118°12'3 2.9
2015-Feb-26 01:33N 33°44' W 118°16'1 0.6
2015-Feb-25 23:33N 33°44' W 118°17'0 0.0
2015-Feb-25 22:34N 33°44' W 118°17'0 0.0
2015-Feb-25 21:33N 33°44' W 118°17'0 0.0
2015-Feb-25 20:33N 33°44' W 118°17'1 0.3
2015-Feb-25 15:32N 33°46' W 118°17'0 0.2
2015-Feb-25 14:27N 33°46' W 118°17'0 0.1
2015-Feb-25 13:31N 33°45' W 118°17'3 3.2
2015-Feb-25 12:32N 33°43' W 118°15'4 3.6
2015-Feb-25 11:32N 33°46' W 118°16'4 3.0
2015-Feb-25 10:16N 33°44' W 118°12'0 0.5
2015-Feb-25 09:31N 33°45' W 118°13'0 0.4
2015-Feb-25 08:34N 33°44' W 118°12'1 0.7
2015-Feb-25 07:27N 33°45' W 118°13'0 0.1
2015-Feb-25 06:33N 33°45' W 118°13'0 0.0
2015-Feb-25 05:33N 33°45' W 118°13'0 0.3
2015-Feb-25 04:31N 33°45' W 118°13'0 0.3
2015-Feb-25 03:33N 33°45' W 118°13'0 0.0
2015-Feb-25 02:33N 33°45' W 118°13'1 1.3
2015-Feb-25 01:34N 33°46' W 118°13'3 2.9
2015-Feb-25 00:33N 33°44' W 118°12'0 0.5
2015-Feb-24 23:33N 33°43' W 118°12'4 3.9
2015-Feb-24 22:33N 33°44' W 118°17'5 2.3
2015-Feb-24 20:19N 33°44' W 118°10'5 1.0
2015-Feb-24 15:04N 33°45' W 118°17'1 0.2
2015-Feb-24 07:33N 33°46' W 118°15'1 0.3
2015-Feb-24 03:25N 33°45' W 118°17'0 0.1
2015-Feb-24 02:15N 33°45' W 118°16'1 2.1
2015-Feb-24 01:33N 33°46' W 118°15'0 0.0
2015-Feb-23 12:33N 33°46' W 118°15'  

Dump ship's entire track history